Time;durP1;ratioP1;P1;durP2;ratioP2;P2;SDS_P1;SDS_P2;PMS_P1;PMS_P2;Temp;Humidity;BMP_temperature;BMP_pressure;BME280_temperature;BME280_humidity;BME280_pressure;Samples;Min_cycle;Max_cycle;Signal;HPM_P1;HPM_P2
2023/08/06 00:00:56;;;;;;;39.97;36.13;;;14.00;99.90;;;;;;4960298;28;20038;-85
2023/08/06 00:03:22;;;;;;;35.90;32.58;;;14.00;99.90;;;;;;4966371;28;20074;-85
2023/08/06 00:05:47;;;;;;;35.72;32.55;;;14.10;99.90;;;;;;4959295;28;20087;-84
2023/08/06 00:08:13;;;;;;;37.55;33.80;;;14.00;99.90;;;;;;4958845;28;20486;-84
2023/08/06 00:10:40;;;;;;;40.08;36.05;;;14.00;99.90;;;;;;4973612;28;20413;-84
2023/08/06 00:13:07;;;;;;;39.45;35.65;;;13.90;99.90;;;;;;4970714;28;20093;-84
2023/08/06 00:15:33;;;;;;;38.85;35.03;;;13.90;99.90;;;;;;4982971;28;20041;-84
2023/08/06 00:17:58;;;;;;;37.55;33.78;;;13.90;99.90;;;;;;4958358;28;20109;-84
2023/08/06 00:20:24;;;;;;;37.50;33.85;;;13.90;99.90;;;;;;4958229;28;20038;-84
2023/08/06 00:22:49;;;;;;;37.30;33.75;;;13.90;99.90;;;;;;4959056;28;20038;-84
2023/08/06 00:25:15;;;;;;;37.67;33.90;;;13.90;99.90;;;;;;4959065;28;20038;-84
2023/08/06 00:27:42;;;;;;;34.03;30.83;;;13.90;99.90;;;;;;4950442;28;20085;-84
2023/08/06 00:30:08;;;;;;;35.97;32.63;;;13.90;99.90;;;;;;4959032;28;20034;-84
2023/08/06 00:32:34;;;;;;;35.17;31.88;;;13.90;99.90;;;;;;4979017;28;20049;-84
2023/08/06 00:34:59;;;;;;;35.65;32.05;;;13.80;99.90;;;;;;4979333;28;20086;-84
2023/08/06 00:37:25;;;;;;;35.03;31.45;;;13.80;99.90;;;;;;4968749;28;20042;-84
2023/08/06 00:39:52;;;;;;;31.13;28.23;;;13.80;99.90;;;;;;4957243;28;20046;-85
2023/08/06 00:42:20;;;;;;;33.20;29.90;;;13.80;99.90;;;;;;4967074;28;20113;-86
2023/08/06 00:44:46;;;;;;;34.83;31.45;;;13.80;99.90;;;;;;4966338;28;20038;-83
2023/08/06 00:47:12;;;;;;;32.83;29.83;;;13.70;99.90;;;;;;4958950;28;20047;-85
2023/08/06 00:49:38;;;;;;;33.58;30.27;;;13.70;99.90;;;;;;4955090;28;20043;-85
2023/08/06 00:52:06;;;;;;;35.22;31.80;;;13.70;99.90;;;;;;4940657;29;20118;-86
2023/08/06 00:54:34;;;;;;;34.42;31.42;;;13.70;99.90;;;;;;4955300;29;20042;-86
2023/08/06 00:57:01;;;;;;;34.60;31.30;;;13.70;99.90;;;;;;4974439;28;20034;-86
2023/08/06 00:59:30;;;;;;;35.17;31.52;;;13.70;99.90;;;;;;4958435;28;20047;-84
2023/08/06 01:01:56;;;;;;;34.63;31.33;;;13.70;99.90;;;;;;4958437;28;20694;-86
2023/08/06 01:04:23;;;;;;;34.95;31.50;;;13.80;99.90;;;;;;4958262;28;20138;-85
2023/08/06 01:06:58;;;;;;;34.95;31.45;;;13.70;99.90;;;;;;4958512;28;20049;-85
2023/08/06 01:09:42;;;;;;;32.75;29.63;;;13.70;99.90;;;;;;4957253;28;20460;-86
2023/08/06 01:12:42;;;;;;;35.42;32.13;;;13.70;99.90;;;;;;4967935;28;20049;-85
2023/08/06 01:15:17;;;;;;;35.08;31.67;;;13.70;99.90;;;;;;4977044;28;20448;-86
2023/08/06 01:17:45;;;;;;;37.88;33.85;;;13.70;99.90;;;;;;4958206;28;20049;-87
2023/08/06 01:20:11;;;;;;;35.60;31.95;;;13.70;99.90;;;;;;4962498;28;20045;-86
2023/08/06 01:22:36;;;;;;;35.05;31.52;;;13.60;99.90;;;;;;4960033;28;20413;-85
2023/08/06 01:25:02;;;;;;;31.80;28.95;;;13.60;99.90;;;;;;4957982;28;20400;-85
2023/08/06 01:27:49;;;;;;;32.15;29.00;;;13.60;99.90;;;;;;4957293;28;20042;-85
2023/08/06 01:30:35;;;;;;;36.67;32.72;;;13.60;99.90;;;;;;4958354;28;20572;-86
2023/08/06 01:33:04;;;;;;;33.25;30.08;;;13.60;99.90;;;;;;4954717;29;20710;-86
2023/08/06 01:35:30;;;;;;;31.55;28.63;;;13.60;99.90;;;;;;4953819;28;20038;-86
2023/08/06 01:37:56;;;;;;;34.50;31.10;;;13.60;99.90;;;;;;4980004;28;20493;-86
2023/08/06 01:40:22;;;;;;;32.17;28.77;;;13.60;99.90;;;;;;4968439;28;20053;-86
2023/08/06 01:42:47;;;;;;;33.03;29.88;;;13.50;99.90;;;;;;4989434;28;20485;-85
2023/08/06 01:45:13;;;;;;;31.88;28.63;;;13.50;99.90;;;;;;4973278;28;20142;-85
2023/08/06 01:47:39;;;;;;;32.92;29.80;;;13.50;99.90;;;;;;4970289;28;20038;-86
2023/08/06 01:50:05;;;;;;;32.88;29.77;;;13.50;99.90;;;;;;4956588;28;20042;-86
2023/08/06 01:52:31;;;;;;;34.22;30.88;;;13.50;99.90;;;;;;4956627;28;20400;-84
2023/08/06 01:54:56;;;;;;;34.63;31.42;;;13.50;99.90;;;;;;4956734;28;20121;-86
2023/08/06 01:57:22;;;;;;;37.35;33.35;;;13.50;99.90;;;;;;4956080;28;20105;-85
2023/08/06 01:59:48;;;;;;;33.30;30.10;;;13.50;99.90;;;;;;4957740;28;20031;-84
2023/08/06 02:02:13;;;;;;;37.95;34.10;;;13.50;99.90;;;;;;4980405;28;20521;-85
2023/08/06 02:04:39;;;;;;;33.85;30.65;;;13.50;99.90;;;;;;4990462;28;20042;-85
2023/08/06 02:07:05;;;;;;;36.42;32.90;;;13.50;99.90;;;;;;4975672;28;20035;-85
2023/08/06 02:09:31;;;;;;;37.63;33.63;;;13.50;99.90;;;;;;4957495;28;20037;-85
2023/08/06 02:11:56;;;;;;;43.70;37.05;;;13.50;99.90;;;;;;4937195;29;20042;-85
2023/08/06 02:14:22;;;;;;;35.67;32.17;;;13.50;99.90;;;;;;4937048;29;20039;-85
2023/08/06 02:16:48;;;;;;;38.35;34.55;;;13.50;99.90;;;;;;4953558;28;20043;-85
2023/08/06 02:19:14;;;;;;;39.28;35.28;;;13.50;99.90;;;;;;4943855;28;20094;-85
2023/08/06 02:21:39;;;;;;;39.45;35.72;;;13.50;99.90;;;;;;4937008;29;20039;-86
2023/08/06 02:24:05;;;;;;;41.70;37.28;;;13.50;99.90;;;;;;4937114;29;20047;-85
2023/08/06 02:26:31;;;;;;;39.55;35.65;;;13.50;99.90;;;;;;4948392;28;20387;-85
2023/08/06 02:28:56;;;;;;;40.58;36.60;;;13.50;99.90;;;;;;4963771;28;20133;-85
2023/08/06 02:31:22;;;;;;;42.97;38.38;;;13.40;99.90;;;;;;4956302;28;20043;-86
2023/08/06 02:33:47;;;;;;;44.55;39.92;;;13.40;99.90;;;;;;4956939;28;20071;-86
2023/08/06 02:36:13;;;;;;;51.05;40.58;;;13.40;99.90;;;;;;4956152;28;20035;-86
2023/08/06 02:38:39;;;;;;;42.92;38.63;;;13.40;99.90;;;;;;4952808;28;20118;-86
2023/08/06 02:41:05;;;;;;;50.67;41.40;;;13.40;99.90;;;;;;4961659;28;20041;-86
2023/08/06 02:43:31;;;;;;;44.10;39.47;;;13.30;99.90;;;;;;4973506;28;20493;-86
2023/08/06 02:46:00;;;;;;;42.05;37.45;;;13.30;99.90;;;;;;4975639;28;20042;-86
2023/08/06 02:48:26;;;;;;;41.15;36.95;;;13.30;99.90;;;;;;4956134;28;20043;-86
2023/08/06 02:50:51;;;;;;;48.10;40.90;;;13.30;99.90;;;;;;4971587;28;20073;-85
2023/08/06 02:53:17;;;;;;;71.97;46.25;;;13.30;99.90;;;;;;4963785;28;20086;-86
2023/08/06 02:55:47;;;;;;;55.83;42.20;;;13.20;99.90;;;;;;4956477;28;20053;-86
2023/08/06 02:58:14;;;;;;;75.65;47.25;;;13.20;99.90;;;;;;4970740;28;20039;-85
2023/08/06 03:00:40;;;;;;;74.55;48.75;;;13.20;99.90;;;;;;4954023;29;20039;-85
2023/08/06 03:03:06;;;;;;;41.28;37.03;;;13.20;99.90;;;;;;4936881;29;20528;-85
2023/08/06 03:05:31;;;;;;;44.33;39.70;;;13.20;99.90;;;;;;4937451;28;20043;-85
2023/08/06 03:07:57;;;;;;;43.70;39.33;;;13.20;99.90;;;;;;4937833;28;20387;-85
2023/08/06 03:10:22;;;;;;;73.47;47.00;;;13.20;99.90;;;;;;4959248;28;20086;-86
2023/08/06 03:12:48;;;;;;;46.58;40.30;;;13.30;99.90;;;;;;4959589;28;20129;-85
2023/08/06 03:15:14;;;;;;;41.70;37.47;;;13.30;99.90;;;;;;4959354;28;20089;-85
2023/08/06 03:17:40;;;;;;;41.08;36.88;;;13.30;99.90;;;;;;4959372;28;20035;-86
2023/08/06 03:20:06;;;;;;;41.60;37.50;;;13.30;99.90;;;;;;4959168;28;20062;-86
2023/08/06 03:22:31;;;;;;;43.45;38.88;;;13.30;99.90;;;;;;4991344;28;20038;-86
2023/08/06 03:24:57;;;;;;;39.55;35.50;;;13.30;99.90;;;;;;4959357;28;20407;-86
2023/08/06 03:27:23;;;;;;;40.83;36.55;;;13.40;99.90;;;;;;4959442;28;20043;-86
2023/08/06 03:29:50;;;;;;;38.80;34.85;;;13.40;99.90;;;;;;4951339;28;20098;-85
2023/08/06 03:32:16;;;;;;;42.78;37.30;;;13.40;99.90;;;;;;4961339;28;20529;-85
2023/08/06 03:34:41;;;;;;;39.95;35.60;;;13.40;99.90;;;;;;4962090;28;20031;-85
2023/08/06 03:37:07;;;;;;;60.45;44.08;;;13.40;99.90;;;;;;4960339;28;20039;-85
2023/08/06 03:39:33;;;;;;;38.63;34.83;;;13.40;99.90;;;;;;4956541;28;20050;-86
2023/08/06 03:41:58;;;;;;;36.75;33.22;;;13.40;99.90;;;;;;4959135;28;20043;-85
2023/08/06 03:44:24;;;;;;;38.08;34.15;;;13.30;99.90;;;;;;4959630;28;20049;-85
2023/08/06 03:46:50;;;;;;;35.58;32.17;;;13.40;99.90;;;;;;4959030;28;20050;-86
2023/08/06 03:49:15;;;;;;;37.67;33.72;;;13.40;99.90;;;;;;4964940;28;20038;-86
2023/08/06 03:51:41;;;;;;;35.40;31.75;;;13.50;99.90;;;;;;4958817;28;20094;-86
2023/08/06 03:54:07;;;;;;;35.70;32.20;;;13.50;99.90;;;;;;4959552;28;20085;-86
2023/08/06 03:56:32;;;;;;;41.95;35.40;;;13.50;99.90;;;;;;4960666;28;20077;-86
2023/08/06 03:58:58;;;;;;;35.83;32.25;;;13.40;99.90;;;;;;4969818;28;20038;-86
2023/08/06 04:01:24;;;;;;;36.22;32.75;;;13.50;99.90;;;;;;4960196;28;20039;-84
2023/08/06 04:03:49;;;;;;;43.38;35.08;;;13.50;99.90;;;;;;4958719;28;20097;-85
2023/08/06 04:06:15;;;;;;;44.00;37.17;;;13.50;99.90;;;;;;4958766;28;20039;-85
2023/08/06 04:08:41;;;;;;;35.63;32.08;;;13.50;99.90;;;;;;4958091;28;20082;-84
2023/08/06 04:11:08;;;;;;;40.97;36.67;;;13.50;99.90;;;;;;4973866;28;20093;-84
2023/08/06 04:13:33;;;;;;;40.90;34.42;;;13.40;99.90;;;;;;4975368;28;20049;-84
2023/08/06 04:16:03;;;;;;;67.28;43.33;;;13.40;99.90;;;;;;4974839;28;20117;-84
2023/08/06 04:18:29;;;;;;;50.75;38.60;;;13.50;99.90;;;;;;4958385;28;20039;-84
2023/08/06 04:20:55;;;;;;;36.15;32.55;;;13.50;99.90;;;;;;4973841;28;20402;-84
2023/08/06 04:23:21;;;;;;;37.63;33.85;;;13.50;99.90;;;;;;4958927;28;20070;-84
2023/08/06 04:25:46;;;;;;;40.22;35.28;;;13.50;99.90;;;;;;4959132;28;20043;-85
2023/08/06 04:28:12;;;;;;;35.50;31.98;;;13.50;99.90;;;;;;4957579;28;20035;-85
2023/08/06 04:30:38;;;;;;;35.67;32.17;;;13.50;99.90;;;;;;4958099;28;20089;-84
2023/08/06 04:33:04;;;;;;;35.35;31.80;;;13.60;99.90;;;;;;4990545;28;20038;-84
2023/08/06 04:35:30;;;;;;;33.95;30.65;;;13.50;99.90;;;;;;4954339;29;20043;-84
2023/08/06 04:37:55;;;;;;;34.60;31.20;;;13.60;99.90;;;;;;4946569;28;20038;-84
2023/08/06 04:40:21;;;;;;;34.72;31.27;;;13.60;99.90;;;;;;4977700;28;20077;-84
2023/08/06 04:42:47;;;;;;;38.42;34.28;;;13.60;99.90;;;;;;4970035;28;20394;-84
2023/08/06 04:45:12;;;;;;;39.00;34.13;;;13.60;99.90;;;;;;4957360;28;20043;-84
2023/08/06 04:47:38;;;;;;;35.50;32.05;;;13.60;99.90;;;;;;4956644;28;20050;-84
2023/08/06 04:50:04;;;;;;;36.05;32.28;;;13.60;99.90;;;;;;4974679;28;20043;-84
2023/08/06 04:52:32;;;;;;;37.65;33.85;;;13.60;99.90;;;;;;4966031;28;20125;-84
2023/08/06 04:54:58;;;;;;;53.88;40.60;;;13.60;99.90;;;;;;4959373;28;20039;-84
2023/08/06 04:57:24;;;;;;;35.75;32.15;;;13.60;99.90;;;;;;4974383;28;20053;-85
2023/08/06 04:59:50;;;;;;;55.35;40.78;;;13.60;99.90;;;;;;4984345;28;21672;-84
2023/08/06 05:02:15;;;;;;;37.30;33.60;;;13.60;99.90;;;;;;4975603;28;20039;-85
2023/08/06 05:04:41;;;;;;;37.63;34.03;;;13.60;99.90;;;;;;4955060;28;20035;-84
2023/08/06 05:07:07;;;;;;;38.35;34.33;;;13.70;99.90;;;;;;4971129;28;20074;-85
2023/08/06 05:09:33;;;;;;;38.50;34.38;;;13.70;99.90;;;;;;4939483;29;20078;-84
2023/08/06 05:12:04;;;;;;;38.47;34.40;;;13.70;99.90;;;;;;4941758;28;20043;-86
2023/08/06 05:14:30;;;;;;;64.38;43.85;;;13.70;99.90;;;;;;4957680;28;20034;-86
2023/08/06 05:16:55;;;;;;;57.95;43.47;;;13.80;99.90;;;;;;4957622;28;20457;-86
2023/08/06 05:19:23;;;;;;;35.92;32.35;;;13.80;99.90;;;;;;4955666;28;20050;-86
2023/08/06 05:21:52;;;;;;;38.25;34.35;;;13.90;99.90;;;;;;4958092;28;20045;-85
2023/08/06 05:24:17;;;;;;;34.97;31.58;;;13.80;99.90;;;;;;4958167;28;20549;-86
2023/08/06 05:26:46;;;;;;;34.97;31.48;;;13.90;99.90;;;;;;4956953;28;20053;-86
2023/08/06 05:29:12;;;;;;;32.63;29.65;;;13.90;99.90;;;;;;4956892;28;20121;-87
2023/08/06 05:31:37;;;;;;;35.90;32.15;;;13.90;99.90;;;;;;4956916;28;20085;-86
2023/08/06 05:34:03;;;;;;;31.75;28.75;;;13.90;99.90;;;;;;4956895;28;20493;-86
2023/08/06 05:36:29;;;;;;;46.20;37.45;;;14.00;99.90;;;;;;4957482;28;20039;-86
2023/08/06 05:38:54;;;;;;;33.10;29.80;;;13.90;99.90;;;;;;4957521;28;20375;-86
2023/08/06 05:41:20;;;;;;;32.20;29.10;;;14.00;99.90;;;;;;4957709;28;20035;-86
2023/08/06 05:43:45;;;;;;;30.55;27.52;;;14.00;99.90;;;;;;4970054;28;20050;-86
2023/08/06 05:46:11;;;;;;;31.40;28.42;;;14.10;99.90;;;;;;4965745;28;20034;-88
2023/08/06 05:48:37;;;;;;;34.65;31.15;;;14.00;99.90;;;;;;4959626;28;20121;-86
2023/08/06 05:51:03;;;;;;;32.85;29.65;;;14.10;99.90;;;;;;4973207;28;20137;-85
2023/08/06 05:53:31;;;;;;;31.75;28.45;;;14.00;99.90;;;;;;4969526;28;20042;-87
2023/08/06 05:55:58;;;;;;;29.95;27.10;;;14.00;99.90;;;;;;4950934;28;20118;-85
2023/08/06 05:58:26;;;;;;;30.83;28.10;;;14.10;99.90;;;;;;4970906;28;20085;-84
2023/08/06 06:00:52;;;;;;;38.55;34.40;;;14.10;99.90;;;;;;4960780;28;20034;-86
2023/08/06 06:03:23;;;;;;;36.28;32.75;;;14.10;99.90;;;;;;4961748;28;20066;-87
2023/08/06 06:05:49;;;;;;;30.50;27.48;;;14.20;99.90;;;;;;4973117;28;20520;-86
2023/08/06 06:08:14;;;;;;;31.70;28.80;;;14.20;99.90;;;;;;4968486;28;20061;-84
2023/08/06 06:10:48;;;;;;;42.83;37.00;;;14.20;99.90;;;;;;4945293;28;20043;-86
2023/08/06 06:13:37;;;;;;;38.45;34.30;;;14.20;99.90;;;;;;4951477;29;20494;-88
2023/08/06 06:16:03;;;;;;;49.58;37.92;;;14.30;99.90;;;;;;4937220;29;20070;-85
2023/08/06 06:18:31;;;;;;;30.60;28.00;;;14.30;99.90;;;;;;4922211;29;20458;-88
2023/08/06 06:21:08;;;;;;;43.15;36.72;;;14.40;99.90;;;;;;4941607;28;20449;-85
2023/08/06 06:23:33;;;;;;;38.22;34.58;;;14.40;99.90;;;;;;4981223;28;20046;-87
2023/08/06 06:26:02;;;;;;;30.45;27.88;;;14.40;99.90;;;;;;4966251;28;20134;-88
2023/08/06 06:28:28;;;;;;;28.33;26.02;;;14.50;99.90;;;;;;4956546;28;20082;-85
2023/08/06 06:30:59;;;;;;;29.08;26.52;;;14.50;99.90;;;;;;4956022;28;20409;-88
2023/08/06 06:33:34;;;;;;;45.30;36.42;;;14.50;99.90;;;;;;4965050;28;20046;-87
2023/08/06 06:35:59;;;;;;;31.58;28.77;;;14.50;99.90;;;;;;4957293;28;20482;-88
2023/08/06 06:38:28;;;;;;;32.97;29.98;;;14.40;99.90;;;;;;4995908;23;20047;-88
2023/08/06 06:41:16;;;;;;;37.25;33.55;;;14.40;99.90;;;;;;4963401;28;20133;-89
2023/08/06 06:43:43;;;;;;;34.78;31.38;;;14.60;99.90;;;;;;4950021;28;20452;-88
2023/08/06 06:49:36;;;;;;;30.38;27.98;;;14.40;99.90;;;;;;4963284;28;20145;-88
2023/08/06 07:01:46;;;;;;;38.45;34.47;;;14.50;99.90;;;;;;4887448;29;20104;-82
2023/08/06 07:08:36;;;;;;;37.30;33.85;;;14.60;99.90;;;;;;4797691;29;20043;-85
2023/08/06 07:11:48;;;;;;;40.97;36.83;;;14.60;99.90;;;;;;4806695;29;20055;-78
2023/08/06 07:14:52;;;;;;;33.80;30.90;;;14.70;99.90;;;;;;4776521;29;20053;-78
2023/08/06 07:18:22;;;;;;;36.08;32.95;;;14.70;99.90;;;;;;4809755;29;20062;-79
2023/08/06 07:28:24;;;;;;;;;;;;;;;;;;;;;
2023/08/06 07:31:55;;;;;;;;;;;;;;;;;;;;;
2023/08/06 07:45:46;;;;;;;42.47;38.53;;;15.10;99.90;;;;;;4920797;29;20051;-80
2023/08/06 07:51:28;;;;;;;39.85;36.45;;;15.40;99.90;;;;;;5424448;23;20047;-87
2023/08/06 07:57:10;;;;;;;36.97;33.97;;;15.50;99.90;;;;;;4935052;29;20043;-85
2023/08/06 07:59:35;;;;;;;31.08;28.77;;;15.50;99.90;;;;;;4934962;29;20062;-84
2023/08/06 08:02:01;;;;;;;31.17;28.77;;;15.60;99.90;;;;;;4922959;29;20477;-86
2023/08/06 08:04:27;;;;;;;38.00;34.78;;;15.70;99.90;;;;;;4930905;29;20047;-87
2023/08/06 08:07:44;;;;;;;;;;;;;;;;;;;;;
2023/08/06 08:10:36;;;;;;;30.55;28.23;;;15.70;99.90;;;;;;4937522;29;20043;-87
2023/08/06 08:13:35;;;;;;;;;;;;;;;;;;;;;
2023/08/06 08:16:25;;;;;;;27.67;25.60;;;15.80;99.90;;;;;;4884408;29;20052;-86
2023/08/06 08:18:53;;;;;;;29.65;27.45;;;15.80;99.90;;;;;;4939149;28;20126;-87
2023/08/06 08:21:25;;;;;;;32.45;30.05;;;15.80;99.90;;;;;;4941294;28;20073;-87
2023/08/06 08:24:23;;;;;;;35.60;32.70;;;15.90;99.90;;;;;;4945022;29;20047;-86
2023/08/06 08:26:53;;;;;;;28.58;26.25;;;16.00;99.90;;;;;;4931488;29;20075;-87
2023/08/06 08:29:22;;;;;;;26.85;24.83;;;16.00;99.90;;;;;;4937521;29;20130;-87
2023/08/06 08:31:50;;;;;;;27.67;25.67;;;16.00;99.90;;;;;;4938381;29;20087;-87
2023/08/06 08:34:19;;;;;;;32.47;29.90;;;16.00;99.90;;;;;;4939351;29;20106;-86
2023/08/06 08:37:24;;;;;;;29.40;27.05;;;15.90;99.90;;;;;;4923307;29;20113;-85
2023/08/06 08:39:50;;;;;;;31.83;29.33;;;16.00;99.90;;;;;;4875949;29;20051;-84
2023/08/06 08:46:04;;;;;;;28.35;26.08;;;16.20;99.90;;;;;;4920831;29;20127;-82
2023/08/06 09:01:50;;;;;;;27.60;25.40;;;16.30;99.90;;;;;;4901374;29;20051;-84
2023/08/06 09:04:42;;;;;;;29.23;26.92;;;16.50;99.90;;;;;;4970495;23;20134;-78
2023/08/06 09:07:25;;;;;;;26.92;24.92;;;16.70;99.90;;;;;;4916228;29;20040;-79
2023/08/06 09:10:25;;;;;;;24.85;23.13;;;16.80;99.90;;;;;;4922469;29;20655;-79
2023/08/06 09:17:01;;;;;;;23.73;22.02;;;17.00;99.90;;;;;;4935070;29;20043;-80
2023/08/06 09:19:51;;;;;;;21.00;19.40;;;17.00;99.90;;;;;;4950946;29;20466;-80
2023/08/06 09:22:58;;;;;;;18.13;16.85;;;17.20;99.90;;;;;;4947598;29;20035;-82
2023/08/06 09:25:44;;;;;;;19.95;18.63;;;17.30;99.90;;;;;;4917848;29;20090;-81
2023/08/06 09:28:13;;;;;;;20.73;19.33;;;17.40;99.90;;;;;;4894002;29;20103;-81
2023/08/06 09:31:17;;;;;;;20.80;19.40;;;17.40;99.90;;;;;;4927435;29;20047;-80
2023/08/06 09:34:10;;;;;;;23.17;21.42;;;17.50;99.90;;;;;;4953198;28;20390;-80
2023/08/06 09:36:47;;;;;;;17.90;16.50;;;17.60;99.90;;;;;;4937305;29;20047;-79
2023/08/06 09:40:10;;;;;;;18.65;17.05;;;17.70;99.90;;;;;;4932041;29;20034;-79
2023/08/06 09:43:24;;;;;;;15.60;14.40;;;17.80;99.90;;;;;;4924642;28;20048;-79
2023/08/06 09:46:32;;;;;;;18.42;17.13;;;18.00;99.90;;;;;;4939263;29;20062;-79
2023/08/06 09:49:11;;;;;;;18.40;17.10;;;18.00;99.90;;;;;;4937236;29;20080;-79
2023/08/06 09:52:00;;;;;;;14.00;13.00;;;18.10;99.90;;;;;;4942188;29;20122;-80
2023/08/06 09:54:55;;;;;;;15.55;14.45;;;18.20;99.90;;;;;;4957397;28;20465;-80
2023/08/06 09:58:00;;;;;;;13.80;12.82;;;18.40;99.90;;;;;;4936300;29;20051;-80
2023/08/06 10:00:47;;;;;;;;;;;;;;;;;;;;;
2023/08/06 10:06:58;;;;;;;14.35;13.25;;;18.50;99.90;;;;;;4913089;29;20048;-79
2023/08/06 10:10:19;;;;;;;13.10;12.13;;;18.70;99.90;;;;;;4889500;29;20040;-79
2023/08/06 10:20:10;;;;;;;9.75;8.85;;;19.00;99.90;;;;;;4978254;23;20070;-78
2023/08/06 10:22:36;;;;;;;8.10;7.50;;;19.10;99.90;;;;;;4954157;28;20080;-78
2023/08/06 10:25:06;;;;;;;8.98;8.27;;;19.00;99.90;;;;;;4962668;28;20059;-78
2023/08/06 10:27:38;;;;;;;8.45;7.80;;;18.90;99.90;;;;;;4950271;28;20134;-77
2023/08/06 10:30:23;;;;;;;8.98;8.27;;;19.00;99.90;;;;;;4939679;29;20494;-77
2023/08/06 10:32:51;;;;;;;9.57;8.88;;;19.00;99.90;;;;;;4951717;28;20114;-76
2023/08/06 10:35:32;;;;;;;9.75;8.85;;;19.20;99.90;;;;;;4936546;29;20055;-76
2023/08/06 10:38:13;;;;;;;7.60;6.95;;;19.40;99.90;;;;;;4938859;28;20396;-76
2023/08/06 10:41:02;;;;;;;8.13;7.47;;;19.60;99.90;;;;;;4945123;28;20078;-76
2023/08/06 10:43:35;;;;;;;7.53;6.82;;;19.70;99.90;;;;;;4936141;29;20042;-75
2023/08/06 10:46:09;;;;;;;7.47;6.85;;;19.80;99.90;;;;;;4917147;29;20044;-75
2023/08/06 10:48:37;;;;;;;7.65;6.95;;;20.00;99.90;;;;;;4920918;29;20039;-75
2023/08/06 10:51:04;;;;;;;8.10;7.40;;;20.10;99.90;;;;;;4934585;29;20505;-75
2023/08/06 10:53:30;;;;;;;6.65;6.15;;;20.20;99.90;;;;;;4935873;29;20035;-76
2023/08/06 10:55:56;;;;;;;7.00;6.40;;;20.40;99.90;;;;;;4935937;29;20401;-74
2023/08/06 10:58:22;;;;;;;6.47;5.50;;;20.50;99.90;;;;;;4933655;29;20043;-75
2023/08/06 11:00:48;;;;;;;5.68;5.18;;;20.70;99.90;;;;;;4934464;29;20043;-75
2023/08/06 11:03:15;;;;;;;5.75;5.35;;;20.80;99.90;;;;;;4934484;29;20051;-74
2023/08/06 11:05:40;;;;;;;6.45;5.90;;;20.90;99.90;;;;;;4938514;28;20043;-74
2023/08/06 11:08:06;;;;;;;6.38;5.70;;;20.80;99.90;;;;;;4941096;29;20043;-74
2023/08/06 11:10:35;;;;;;;6.03;5.43;;;20.80;99.90;;;;;;4936175;29;20090;-74
2023/08/06 11:13:03;;;;;;;6.25;5.65;;;20.90;99.90;;;;;;4935577;29;20124;-74
2023/08/06 11:15:30;;;;;;;5.47;5.00;;;21.10;99.90;;;;;;4936170;29;20043;-75
2023/08/06 11:17:56;;;;;;;5.40;4.90;;;21.40;99.90;;;;;;4934033;29;20049;-74
2023/08/06 11:20:24;;;;;;;5.40;5.00;;;21.80;99.90;;;;;;4934099;29;20035;-74
2023/08/06 11:22:50;;;;;;;5.18;4.55;;;22.00;99.90;;;;;;4932157;29;20039;-75
2023/08/06 11:25:16;;;;;;;4.60;4.20;;;21.90;99.90;;;;;;4919485;29;20576;-75
2023/08/06 11:27:41;;;;;;;4.47;4.10;;;21.80;99.90;;;;;;4935647;29;20051;-75
2023/08/06 11:30:10;;;;;;;4.60;4.15;;;21.70;99.90;;;;;;4941557;28;20603;-75
2023/08/06 11:32:46;;;;;;;4.38;3.97;;;21.40;99.90;;;;;;4942176;29;20054;-75
2023/08/06 11:35:12;;;;;;;5.40;4.15;;;21.50;99.90;;;;;;4938818;29;20066;-75
2023/08/06 11:37:43;;;;;;;5.10;4.70;;;21.70;99.90;;;;;;4947154;28;20043;-75
2023/08/06 11:40:11;;;;;;;5.32;3.80;;;22.10;99.90;;;;;;4939434;29;20039;-75
2023/08/06 11:42:36;;;;;;;3.38;3.08;;;22.30;99.90;;;;;;4946530;28;20050;-75
2023/08/06 11:45:04;;;;;;;4.22;3.30;;;22.30;99.90;;;;;;4950546;28;20031;-75
2023/08/06 11:47:30;;;;;;;5.30;3.20;;;22.30;99.90;;;;;;4955173;28;20046;-75
2023/08/06 11:49:56;;;;;;;5.55;3.60;;;22.40;99.90;;;;;;4930332;29;20035;-76
2023/08/06 11:52:24;;;;;;;4.40;3.15;;;22.50;99.90;;;;;;4934932;29;20042;-76
2023/08/06 11:55:07;;;;;;;6.30;3.45;;;22.30;99.90;;;;;;4942051;28;20451;-76
2023/08/06 11:57:37;;;;;;;3.72;3.22;;;22.10;99.90;;;;;;4937852;29;20043;-76
2023/08/06 12:00:08;;;;;;;5.75;5.25;;;21.70;99.90;;;;;;4937913;29;20042;-76
2023/08/06 12:02:36;;;;;;;5.68;5.20;;;21.30;99.90;;;;;;4921278;29;20054;-76
2023/08/06 12:05:11;;;;;;;5.43;5.03;;;21.10;99.90;;;;;;4938628;29;20047;-75
2023/08/06 12:07:39;;;;;;;5.65;4.90;;;21.00;99.90;;;;;;4938043;29;20043;-77
2023/08/06 12:10:05;;;;;;;4.78;4.35;;;21.00;99.90;;;;;;4938564;29;20644;-77
2023/08/06 12:12:31;;;;;;;4.85;4.45;;;21.10;99.90;;;;;;4936763;29;20039;-77
2023/08/06 12:14:57;;;;;;;4.82;4.40;;;21.20;99.90;;;;;;4935439;29;20039;-74
2023/08/06 12:17:24;;;;;;;6.30;5.13;;;21.20;99.90;;;;;;4936064;29;20051;-75
2023/08/06 12:19:50;;;;;;;5.13;4.60;;;21.30;99.90;;;;;;4936821;29;20079;-75
2023/08/06 12:22:16;;;;;;;4.88;4.35;;;21.40;99.90;;;;;;4936357;29;20118;-75
2023/08/06 12:24:42;;;;;;;4.72;3.83;;;21.40;99.90;;;;;;4935057;29;20042;-76
2023/08/06 12:27:08;;;;;;;5.00;4.60;;;21.50;99.90;;;;;;4937621;29;20078;-75
2023/08/06 12:29:34;;;;;;;4.95;4.05;;;21.60;99.90;;;;;;4950345;29;20098;-75
2023/08/06 12:32:00;;;;;;;6.63;3.25;;;22.10;99.90;;;;;;4935089;29;20457;-75
2023/08/06 12:34:25;;;;;;;4.97;3.53;;;22.20;99.90;;;;;;4935824;29;20035;-76
2023/08/06 12:36:51;;;;;;;4.47;3.20;;;21.90;99.90;;;;;;4938070;28;20086;-76
2023/08/06 12:39:16;;;;;;;3.88;3.47;;;21.40;99.90;;;;;;4947042;28;20035;-75
2023/08/06 12:41:43;;;;;;;5.32;3.65;;;21.10;99.90;;;;;;4935101;29;20035;-76
2023/08/06 12:44:09;;;;;;;3.70;3.40;;;20.70;99.90;;;;;;4936035;29;20502;-76
2023/08/06 12:46:34;;;;;;;4.10;3.53;;;20.40;99.90;;;;;;4937197;29;20101;-76
2023/08/06 12:49:00;;;;;;;5.78;3.47;;;20.10;99.90;;;;;;4937243;29;20094;-76
2023/08/06 12:51:25;;;;;;;3.65;2.80;;;19.90;99.90;;;;;;4917893;29;20410;-76
2023/08/06 12:53:51;;;;;;;5.10;3.20;;;19.70;99.90;;;;;;4956330;28;20035;-76
2023/08/06 12:56:17;;;;;;;4.07;3.67;;;19.50;99.90;;;;;;4950315;28;20031;-76
2023/08/06 12:58:42;;;;;;;4.28;3.88;;;19.30;99.90;;;;;;4941044;28;20035;-76
2023/08/06 13:01:08;;;;;;;4.18;3.78;;;19.20;99.90;;;;;;4941022;29;20069;-76
2023/08/06 13:03:33;;;;;;;4.38;3.53;;;19.20;99.90;;;;;;4936674;29;20043;-76
2023/08/06 13:05:59;;;;;;;4.40;3.72;;;19.10;99.90;;;;;;4937260;29;20039;-75
2023/08/06 13:08:25;;;;;;;5.95;4.55;;;19.10;99.90;;;;;;4952357;28;20193;-76
2023/08/06 13:10:50;;;;;;;5.15;4.63;;;19.20;99.90;;;;;;4941469;29;20039;-75
2023/08/06 13:13:16;;;;;;;4.50;3.97;;;19.30;99.90;;;;;;4938023;28;20134;-75
2023/08/06 13:15:41;;;;;;;4.47;3.33;;;19.50;99.90;;;;;;4939570;29;20113;-75
2023/08/06 13:18:07;;;;;;;4.55;3.30;;;19.70;99.90;;;;;;4936525;28;20054;-75
2023/08/06 13:20:33;;;;;;;3.25;2.92;;;19.80;99.90;;;;;;4939955;29;20043;-76
2023/08/06 13:23:00;;;;;;;3.78;3.38;;;19.70;99.90;;;;;;4937559;29;20077;-76
2023/08/06 13:25:28;;;;;;;5.55;5.05;;;19.80;99.90;;;;;;4936773;29;20047;-76
2023/08/06 13:27:54;;;;;;;5.47;4.00;;;20.00;99.90;;;;;;4947785;28;20170;-76
2023/08/06 13:30:20;;;;;;;4.85;4.22;;;20.30;99.90;;;;;;4937940;28;20054;-76
2023/08/06 13:32:45;;;;;;;5.13;3.97;;;20.60;99.90;;;;;;4936353;28;20039;-76
2023/08/06 13:35:11;;;;;;;5.00;3.67;;;21.00;99.90;;;;;;4943094;29;20031;-75
2023/08/06 13:37:37;;;;;;;6.10;3.85;;;21.00;99.90;;;;;;4941624;28;20054;-76
2023/08/06 13:40:03;;;;;;;9.18;5.20;;;20.80;99.90;;;;;;4936047;29;20050;-76
2023/08/06 13:42:29;;;;;;;7.72;5.38;;;20.50;99.90;;;;;;4935121;29;20070;-76
2023/08/06 13:45:02;;;;;;;10.40;6.60;;;20.10;99.90;;;;;;4925935;29;20151;-77
2023/08/06 13:47:27;;;;;;;45.70;14.07;;;19.80;99.90;;;;;;4918161;29;20450;-77
2023/08/06 13:49:53;;;;;;;19.45;6.97;;;19.30;99.90;;;;;;4933366;29;20027;-77
2023/08/06 13:52:19;;;;;;;12.93;8.05;;;18.80;99.90;;;;;;4936089;29;20063;-76
2023/08/06 13:54:45;;;;;;;42.83;12.10;;;18.20;99.90;;;;;;4935893;29;20074;-76
2023/08/06 13:57:10;;;;;;;53.75;18.60;;;17.80;99.90;;;;;;4934430;29;20458;-76
2023/08/06 13:59:36;;;;;;;83.28;23.70;;;17.40;99.90;;;;;;4935071;29;20042;-76
2023/08/06 14:02:01;;;;;;;23.45;14.77;;;17.20;99.90;;;;;;4916237;29;20031;-76
2023/08/06 14:04:27;;;;;;;21.92;16.52;;;17.10;99.90;;;;;;4936644;29;20243;-76
2023/08/06 14:06:53;;;;;;;18.35;15.63;;;17.00;99.90;;;;;;4936770;29;20054;-76
2023/08/06 14:09:18;;;;;;;22.33;18.00;;;16.90;99.90;;;;;;4936152;29;20039;-76